Map

Track Data

SID SEASON NUMBER BASIN SUBBASIN NAME ISO_TIME NATURE LAT LON WMO_WIND WMO_PRES WMO_AGENCY TRACK_TYPE DIST2LAND LANDFALL IFLAG USA_AGENCY USA_ATCF_ID USA_LAT USA_LON USA_RECORD USA_STATUS USA_WIND USA_PRES USA_SSHS USA_R34_NE USA_R34_SE USA_R34_SW USA_R34_NW USA_R50_NE USA_R50_SE USA_R50_SW USA_R50_NW USA_R64_NE USA_R64_SE USA_R64_SW USA_R64_NW USA_POCI USA_ROCI USA_RMW USA_EYE TOKYO_LAT TOKYO_LON TOKYO_GRADE TOKYO_WIND TOKYO_PRES TOKYO_R50_DIR TOKYO_R50_LONG TOKYO_R50_SHORT TOKYO_R30_DIR TOKYO_R30_LONG TOKYO_R30_SHORT TOKYO_LAND CMA_LAT CMA_LON CMA_CAT CMA_WIND CMA_PRES HKO_LAT HKO_LON HKO_CAT HKO_WIND HKO_PRES NEWDELHI_LAT NEWDELHI_LON NEWDELHI_GRADE NEWDELHI_WIND NEWDELHI_PRES NEWDELHI_CI NEWDELHI_DP NEWDELHI_POCI REUNION_LAT REUNION_LON REUNION_TYPE REUNION_WIND REUNION_PRES REUNION_TNUM REUNION_CI REUNION_RMW REUNION_R34_NE REUNION_R34_SE REUNION_R34_SW REUNION_R34_NW REUNION_R50_NE REUNION_R50_SE REUNION_R50_SW REUNION_R50_NW REUNION_R64_NE REUNION_R64_SE REUNION_R64_SW REUNION_R64_NW BOM_LAT BOM_LON BOM_TYPE BOM_WIND BOM_PRES BOM_TNUM BOM_CI BOM_RMW BOM_R34_NE BOM_R34_SE BOM_R34_SW BOM_R34_NW BOM_R50_NE BOM_R50_SE BOM_R50_SW BOM_R50_NW BOM_R64_NE BOM_R64_SE BOM_R64_SW BOM_R64_NW BOM_ROCI BOM_POCI BOM_EYE BOM_POS_METHOD BOM_PRES_METHOD NADI_LAT NADI_LON NADI_CAT NADI_WIND NADI_PRES WELLINGTON_LAT WELLINGTON_LON WELLINGTON_WIND WELLINGTON_PRES DS824_LAT DS824_LON DS824_STAGE DS824_WIND DS824_PRES TD9636_LAT TD9636_LON TD9636_STAGE TD9636_WIND TD9636_PRES TD9635_LAT TD9635_LON TD9635_WIND TD9635_PRES TD9635_ROCI NEUMANN_LAT NEUMANN_LON NEUMANN_CLASS NEUMANN_WIND NEUMANN_PRES MLC_LAT MLC_LON MLC_CLASS MLC_WIND MLC_PRES USA_GUST BOM_GUST BOM_GUST_PER REUNION_GUST REUNION_GUST_PER USA_SEAHGT USA_SEARAD_NE USA_SEARAD_SE USA_SEARAD_SW USA_SEARAD_NW STORM_SPEED STORM_DIR
1950244N20277 1950 69 NA CS EASY 1950-09-01 06:00:00 TS 19.7000 -83.2000 40 hurdat_atl main 194 183 O_____________ hurdat_atl AL051950 19.7000 -83.2000 TS 40 0 2 0
1950244N20277 1950 69 NA CS EASY 1950-09-01 09:00:00 TS 19.8000 -83.2000 main 183 172 P_____________ AL051950 19.8000 -83.2000 TS 42 0 2 8
1950244N20277 1950 69 NA CS EASY 1950-09-01 12:00:00 TS 19.9000 -83.2000 45 hurdat_atl main 172 161 O_____________ hurdat_atl AL051950 19.9000 -83.2000 TS 45 0 2 8
1950244N20277 1950 69 NA CS EASY 1950-09-01 15:00:00 TS 20.0000 -83.2000 main 161 151 P_____________ AL051950 20.0000 -83.2000 TS 47 0 2 8
1950244N20277 1950 69 NA CS EASY 1950-09-01 18:00:00 TS 20.1000 -83.2000 50 hurdat_atl main 151 140 O_____________ hurdat_atl AL051950 20.1000 -83.2000 TS 50 0 2 8
1950244N20277 1950 69 NA CS EASY 1950-09-01 21:00:00 TS 20.2000 -83.1925 main 140 129 P_____________ AL051950 20.2000 -83.1925 TS 50 0 2 8
1950244N20277 1950 69 NA CS EASY 1950-09-02 00:00:00 TS 20.3000 -83.2000 50 hurdat_atl main 129 119 O_____________ hurdat_atl AL051950 20.3000 -83.2000 TS 50 0 2 343
1950244N20277 1950 69 NA CS EASY 1950-09-02 03:00:00 TS 20.4000 -83.2500 main 119 113 P_____________ AL051950 20.4000 -83.2500 TS 52 0 2 333
1950244N20277 1950 69 NA CS EASY 1950-09-02 06:00:00 TS 20.5000 -83.3000 55 hurdat_atl main 113 103 O_____________ hurdat_atl AL051950 20.5000 -83.3000 TS 55 0 2 343
1950244N20277 1950 69 NA CS EASY 1950-09-02 09:00:00 TS 20.6000 -83.3150 main 103 93 P_____________ AL051950 20.6000 -83.3150 TS 55 0 2 8
1950244N20277 1950 69 NA CS EASY 1950-09-02 12:00:00 TS 20.7000 -83.3000 55 996 hurdat_atl main 93 84 O_____________ hurdat_atl AL051950 20.7000 -83.3000 TS 55 996 0 2 0
1950244N20277 1950 69 NA CS EASY 1950-09-02 15:00:00 TS 20.7774 -83.2874 main 84 69 P_____________ AL051950 20.7774 -83.2874 TS 55 995 0 2 27
1950244N20277 1950 69 NA CS EASY 1950-09-02 18:00:00 TS 20.9000 -83.2000 55 995 hurdat_atl main 69 39 O_____________ hurdat_atl AL051950 20.9000 -83.2000 TS 55 995 0 4 39
1950244N20277 1950 69 NA CS EASY 1950-09-02 21:00:00 TS 21.1185 -82.9875 main 39 0 P_____________ AL051950 21.1185 -82.9875 TS 62 0 7 43
1950244N20277 1950 69 NA CS EASY 1950-09-03 00:00:00 TS 21.4000 -82.7000 70 hurdat_atl main 10 10 O_____________ hurdat_atl AL051950 21.4000 -82.7000 HU 70 1 8 43
1950244N20277 1950 69 NA CS EASY 1950-09-03 01:00:00 TS 21.5000 -82.6000 70 hurdat_atl main 10 0 O_____________ hurdat_atl AL051950 21.5000 -82.6000 L HU 70 1 8 27
1950244N20277 1950 69 NA CS EASY 1950-09-03 03:00:00 TS 21.7575 -82.5094 main 15 15 P_____________ AL051950 21.7575 -82.5094 HU 74 1 11 12
1950244N20277 1950 69 NA CS EASY 1950-09-03 06:00:00 TS 22.4000 -82.4000 80 hurdat_atl main 20 0 O_____________ hurdat_atl AL051950 22.4000 -82.4000 HU 80 1 15 12
1950244N20277 1950 69 NA CS EASY 1950-09-03 07:00:00 TS 22.7000 -82.3000 80 hurdat_atl main 0 0 O_____________ hurdat_atl AL051950 22.7000 -82.3000 L HU 80 1 17 12
1950244N20277 1950 69 NA NA EASY 1950-09-03 09:00:00 TS 23.2047 -82.2179 main 11 11 P_____________ AL051950 23.2047 -82.2179 HU 77 1 13 0
1950244N20277 1950 69 NA NA EASY 1950-09-03 12:00:00 TS 23.8000 -82.3000 75 980 hurdat_atl main 78 78 O_____________ hurdat_atl AL051950 23.8000 -82.3000 HU 75 980 1 12 350
1950244N20277 1950 69 NA NA EASY 1950-09-03 15:00:00 TS 24.3535 -82.4324 main 145 142 P_____________ AL051950 24.3535 -82.4324 HU 75 980 1 11 346
1950244N20277 1950 69 NA GM EASY 1950-09-03 18:00:00 TS 24.9000 -82.6000 75 980 hurdat_atl main 143 109 O_____________ hurdat_atl AL051950 24.9000 -82.6000 HU 75 980 1 12 349
1950244N20277 1950 69 NA GM EASY 1950-09-03 21:00:00 TS 25.5649 -82.6854 main 105 82 P_____________ AL051950 25.5649 -82.6854 HU 77 1 13 352
1950244N20277 1950 69 NA GM EASY 1950-09-04 00:00:00 TS 26.2000 -82.8000 80 hurdat_atl main 82 68 O_____________ hurdat_atl AL051950 26.2000 -82.8000 HU 80 1 12 344
1950244N20277 1950 69 NA GM EASY 1950-09-04 03:00:00 TS 26.7026 -83.0497 main 70 68 P_____________ AL051950 26.7026 -83.0497 HU 82 1 10 334
1950244N20277 1950 69 NA GM EASY 1950-09-04 06:00:00 TS 27.1000 -83.3000 85 hurdat_atl main 72 70 O_____________ hurdat_atl AL051950 27.1000 -83.3000 HU 85 2 8 336
1950244N20277 1950 69 NA GM EASY 1950-09-04 09:00:00 TS 27.4449 -83.4153 main 74 59 P_____________ AL051950 27.4449 -83.4153 HU 85 2 6 344
1950244N20277 1950 69 NA GM EASY 1950-09-04 12:00:00 TS 27.7000 -83.5000 85 973 hurdat_atl main 63 59 O_____________ hurdat_atl AL051950 27.7000 -83.5000 HU 85 973 2 5 333
1950244N20277 1950 69 NA GM EASY 1950-09-04 15:00:00 TS 27.8876 -83.6725 main 78 78 P_____________ AL051950 27.8876 -83.6725 HU 85 973 2 4 319
1950244N20277 1950 69 NA GM EASY 1950-09-04 18:00:00 TS 28.0000 -83.8000 85 973 hurdat_atl main 89 89 O_____________ hurdat_atl AL051950 28.0000 -83.8000 HU 85 973 2 2 325
1950244N20277 1950 69 NA GM EASY 1950-09-04 21:00:00 TS 28.0424 -83.8024 main 89 81 P_____________ AL051950 28.0424 -83.8024 HU 90 2 1 40
1950244N20277 1950 69 NA GM EASY 1950-09-05 00:00:00 TS 28.1000 -83.7000 95 hurdat_atl main 81 67 O_____________ hurdat_atl AL051950 28.1000 -83.7000 HU 95 2 4 46
1950244N20277 1950 69 NA GM EASY 1950-09-05 03:00:00 TS 28.2851 -83.5152 main 72 62 P_____________ AL051950 28.2851 -83.5152 HU 100 3 5 41
1950244N20277 1950 69 NA GM EASY 1950-09-05 06:00:00 TS 28.5000 -83.3000 105 hurdat_atl main 62 48 O_____________ hurdat_atl AL051950 28.5000 -83.3000 HU 105 3 5 42
1950244N20277 1950 69 NA GM EASY 1950-09-05 09:00:00 TS 28.6523 -83.1376 main 44 29 P_____________ AL051950 28.6523 -83.1376 HU 105 3 4 41
1950244N20277 1950 69 NA GM EASY 1950-09-05 12:00:00 TS 28.8000 -83.0000 105 hurdat_atl main 29 9 O_____________ hurdat_atl AL051950 28.8000 -83.0000 HU 105 3 4 34
1950244N20277 1950 69 NA GM EASY 1950-09-05 15:00:00 TS 29.0203 -82.8495 main 0 0 P_____________ AL051950 29.0203 -82.8495 HU 105 3 4 30
1950244N20277 1950 69 NA GM EASY 1950-09-05 17:00:00 TS 29.1000 -82.8000 105 960 hurdat_atl main 0 0 O_____________ hurdat_atl AL051950 29.1000 -82.8000 L HU 105 960 3 2 26
1950244N20277 1950 69 NA GM EASY 1950-09-05 18:00:00 TS 29.1000 -82.8000 105 960 hurdat_atl main 0 0 O_____________ hurdat_atl AL051950 29.1000 -82.8000 HU 105 960 3 2 0
1950244N20277 1950 69 NA GM EASY 1950-09-05 21:00:00 TS 28.9443 -82.8111 main 11 11 P_____________ AL051950 28.9443 -82.8111 HU 100 3 4 0
1950244N20277 1950 69 NA GM EASY 1950-09-06 00:00:00 TS 28.7000 -82.8000 95 hurdat_atl main 19 9 O_____________ hurdat_atl AL051950 28.7000 -82.8000 HU 95 2 4 171
1950244N20277 1950 69 NA GM EASY 1950-09-06 03:00:00 TS 28.5482 -82.7377 main 9 9 P_____________ AL051950 28.5482 -82.7377 HU 91 2 3 155
1950244N20277 1950 69 NA GM EASY 1950-09-06 04:00:00 TS 28.5000 -82.7000 90 hurdat_atl main 9 0 O_____________ hurdat_atl AL051950 28.5000 -82.7000 L HU 90 2 4 141
1950244N20277 1950 69 NA NA EASY 1950-09-06 06:00:00 TS 28.4000 -82.6000 75 hurdat_atl main 0 0 O_____________ hurdat_atl AL051950 28.4000 -82.6000 HU 75 1 5 130
1950244N20277 1950 69 NA NA EASY 1950-09-06 09:00:00 TS 28.2496 -82.3666 main 0 0 P_____________ AL051950 28.2496 -82.3666 HU 67 1 5 114
1950244N20277 1950 69 NA NA EASY 1950-09-06 12:00:00 TS 28.2000 -82.1000 60 hurdat_atl main 0 0 O_____________ hurdat_atl AL051950 28.2000 -82.1000 TS 60 0 4 79
1950244N20277 1950 69 NA NA EASY 1950-09-06 15:00:00 TS 28.3325 -81.8703 main 0 0 P_____________ AL051950 28.3325 -81.8703 TS 50 0 5 41
1950244N20277 1950 69 NA NA EASY 1950-09-06 18:00:00 TS 28.6000 -81.7000 40 hurdat_atl main 0 0 O_____________ hurdat_atl AL051950 28.6000 -81.7000 TS 40 0 6 23
1950244N20277 1950 69 NA NA EASY 1950-09-06 21:00:00 TS 28.9124 -81.5977 main 0 0 P_____________ AL051950 28.9124 -81.5977 TS 40 0 7 7
1950244N20277 1950 69 NA NA EASY 1950-09-07 00:00:00 TS 29.3000 -81.6000 40 hurdat_atl main 0 0 O_____________ hurdat_atl AL051950 29.3000 -81.6000 TS 40 0 8 356
1950244N20277 1950 69 NA NA EASY 1950-09-07 03:00:00 TS 29.7271 -81.6607 main 0 0 P_____________ AL051950 29.7271 -81.6607 TS 37 0 9 344
1950244N20277 1950 69 NA NA EASY 1950-09-07 06:00:00 TS 30.2000 -81.9000 35 hurdat_atl main 0 0 O_____________ hurdat_atl AL051950 30.2000 -81.9000 TS 35 0 11 329
1950244N20277 1950 69 NA NA EASY 1950-09-07 09:00:00 TS 30.7070 -82.3376 main 0 0 P_____________ AL051950 30.7070 -82.3376 TS 32 -1 14 317
1950244N20277 1950 69 NA NA EASY 1950-09-07 12:00:00 TS 31.2000 -83.0000 30 hurdat_atl main 0 0 O_____________ hurdat_atl AL051950 31.2000 -83.0000 TD 30 -1 16 304
1950244N20277 1950 69 NA NA EASY 1950-09-07 15:00:00 TS 31.5938 -83.9002 main 0 0 P_____________ AL051950 31.5938 -83.9002 TD 27 -1 17 298
1950244N20277 1950 69 NA NA EASY 1950-09-07 18:00:00 TS 32.0000 -84.8000 25 hurdat_atl main 0 0 O_____________ hurdat_atl AL051950 32.0000 -84.8000 TD 25 -1 16 307
1950244N20277 1950 69 NA NA EASY 1950-09-07 21:00:00 TS 32.5489 -85.4031 main 0 0 P_____________ AL051950 32.5489 -85.4031 TD 25 -1 14 320
1950244N20277 1950 69 NA NA EASY 1950-09-08 00:00:00 TS 33.1000 -85.9000 25 hurdat_atl main 0 0 O_____________ hurdat_atl AL051950 33.1000 -85.9000 TD 25 -1 13 317
1950244N20277 1950 69 NA NA EASY 1950-09-08 03:00:00 TS 33.4845 -86.4370 main 0 0 P_____________ AL051950 33.4845 -86.4370 TD 22 -1 12 311
1950244N20277 1950 69 NA NA EASY 1950-09-08 06:00:00 TS 33.9000 -87.0000 20 hurdat_atl main 0 0 O_____________ hurdat_atl AL051950 33.9000 -87.0000 TD 20 -1 15 317
1950244N20277 1950 69 NA NA EASY 1950-09-08 09:00:00 TS 34.6108 -87.7145 main 0 0 P_____________ AL051950 34.6108 -87.7145 TD 20 -1 17 321
1950244N20277 1950 69 NA NA EASY 1950-09-08 12:00:00 TS 35.2000 -88.3000 20 hurdat_atl main 0 0 O_____________ hurdat_atl AL051950 35.2000 -88.3000 TD 20 -1 9 319
1950244N20277 1950 69 NA NA EASY 1950-09-08 15:00:00 TS 35.2892 -88.4393 main 0 0 P_____________ AL051950 35.2892 -88.4393 TD 20 -1 2 270
1950244N20277 1950 69 NA NA EASY 1950-09-08 18:00:00 TS 35.2000 -88.5000 20 hurdat_atl main 0 0 O_____________ hurdat_atl AL051950 35.2000 -88.5000 TD 20 -1 4 267
1950244N20277 1950 69 NA NA EASY 1950-09-08 21:00:00 TS 35.2729 -88.8770 main 0 0 P_____________ AL051950 35.2729 -88.8770 TD 20 -1 7 279
1950244N20277 1950 69 NA NA EASY 1950-09-09 00:00:00 TS 35.3000 -89.3000 20 hurdat_atl main 0 0 O_____________ hurdat_atl AL051950 35.3000 -89.3000 TD 20 -1 6 255
1950244N20277 1950 69 NA NA EASY 1950-09-09 03:00:00 TS 35.1124 -89.6031 main 0 0 P_____________ AL051950 35.1124 -89.6031 TD 20 -1 5 234
1950244N20277 1950 69 NA NA EASY 1950-09-09 06:00:00 TS 35.0000 -89.8000 20 hurdat_atl main 0 0 O_____________ hurdat_atl AL051950 35.0000 -89.8000 TD 20 -1 3 304
1950244N20277 1950 69 NA NA EASY 1950-09-09 09:00:00 TS 35.2549 -89.8650 main 0 0 P_____________ AL051950 35.2549 -89.8650 TD 20 -1 6 352
1950244N20277 1950 69 NA NA EASY 1950-09-09 12:00:00 TS 35.6000 -89.9000 20 hurdat_atl main 0 0 O_____________ hurdat_atl AL051950 35.6000 -89.9000 TD 20 -1 6 347
1950244N20277 1950 69 NA NA EASY 1950-09-09 15:00:00 TS 35.8026 -90.0199 main 0 0 P_____________ AL051950 35.8026 -90.0199 TD 20 -1 4 321
1950244N20277 1950 69 NA NA EASY 1950-09-09 18:00:00 TS 35.9000 -90.2000 20 hurdat_atl main 0 O_____________ hurdat_atl AL051950 35.9000 -90.2000 TD 20 -1 4 303

About IBTrACS Database

This database is a web-friendly format of International Best Track Archive for Climate Stewardship (IBTrACS), a global best track data archive curated by NOAA dating back to 1842.

Updated: 2021-10-21